sensor_id;sensor_type;location;lat;lon;timestamp;P1;durP1;ratioP1;P2;durP2;ratioP2
17494;SDS011;8864;51.970;4.614;2023-07-16T00:02:21;2.35;;;1.10;;
17494;SDS011;8864;51.970;4.614;2023-07-16T00:04:48;3.40;;;1.20;;
17494;SDS011;8864;51.970;4.614;2023-07-16T00:07:15;2.45;;;0.95;;
17494;SDS011;8864;51.970;4.614;2023-07-16T00:09:43;2.38;;;1.20;;
17494;SDS011;8864;51.970;4.614;2023-07-16T00:12:11;3.33;;;1.20;;
17494;SDS011;8864;51.970;4.614;2023-07-16T00:14:38;2.88;;;1.20;;
17494;SDS011;8864;51.970;4.614;2023-07-16T00:17:05;3.25;;;1.10;;
17494;SDS011;8864;51.970;4.614;2023-07-16T00:19:32;2.30;;;1.00;;
17494;SDS011;8864;51.970;4.614;2023-07-16T00:22:00;1.75;;;0.90;;
17494;SDS011;8864;51.970;4.614;2023-07-16T00:24:27;2.00;;;1.00;;
17494;SDS011;8864;51.970;4.614;2023-07-16T00:26:54;2.53;;;1.20;;
17494;SDS011;8864;51.970;4.614;2023-07-16T00:29:22;2.60;;;1.00;;
17494;SDS011;8864;51.970;4.614;2023-07-16T00:31:49;2.90;;;1.13;;
17494;SDS011;8864;51.970;4.614;2023-07-16T00:34:16;1.52;;;1.08;;
17494;SDS011;8864;51.970;4.614;2023-07-16T00:36:42;1.83;;;1.00;;
17494;SDS011;8864;51.970;4.614;2023-07-16T00:39:10;3.22;;;1.00;;
17494;SDS011;8864;51.970;4.614;2023-07-16T00:41:37;3.25;;;1.17;;
17494;SDS011;8864;51.970;4.614;2023-07-16T00:44:05;1.65;;;1.05;;
17494;SDS011;8864;51.970;4.614;2023-07-16T00:46:33;1.73;;;1.00;;
17494;SDS011;8864;51.970;4.614;2023-07-16T00:49:00;2.42;;;1.10;;
17494;SDS011;8864;51.970;4.614;2023-07-16T00:51:28;2.83;;;1.23;;
17494;SDS011;8864;51.970;4.614;2023-07-16T00:53:55;4.63;;;1.20;;
17494;SDS011;8864;51.970;4.614;2023-07-16T00:56:22;2.45;;;1.20;;
17494;SDS011;8864;51.970;4.614;2023-07-16T00:58:49;1.90;;;1.00;;
17494;SDS011;8864;51.970;4.614;2023-07-16T01:01:16;2.25;;;1.00;;
17494;SDS011;8864;51.970;4.614;2023-07-16T01:03:44;2.90;;;1.00;;
17494;SDS011;8864;51.970;4.614;2023-07-16T01:06:15;3.05;;;1.13;;
17494;SDS011;8864;51.970;4.614;2023-07-16T01:08:49;2.25;;;1.20;;
17494;SDS011;8864;51.970;4.614;2023-07-16T01:11:24;3.95;;;1.42;;
17494;SDS011;8864;51.970;4.614;2023-07-16T01:13:52;2.53;;;1.10;;
17494;SDS011;8864;51.970;4.614;2023-07-16T01:16:19;1.50;;;0.90;;
17494;SDS011;8864;51.970;4.614;2023-07-16T01:18:48;2.33;;;1.35;;
17494;SDS011;8864;51.970;4.614;2023-07-16T01:21:16;1.83;;;1.10;;
17494;SDS011;8864;51.970;4.614;2023-07-16T01:26:51;2.50;;;1.02;;
17494;SDS011;8864;51.970;4.614;2023-07-16T01:29:33;2.78;;;1.30;;
17494;SDS011;8864;51.970;4.614;2023-07-16T01:32:03;3.42;;;1.45;;
17494;SDS011;8864;51.970;4.614;2023-07-16T01:34:32;2.70;;;1.20;;
17494;SDS011;8864;51.970;4.614;2023-07-16T01:37:01;2.25;;;1.17;;
17494;SDS011;8864;51.970;4.614;2023-07-16T01:39:29;4.28;;;1.40;;
17494;SDS011;8864;51.970;4.614;2023-07-16T01:41:57;3.90;;;1.30;;
17494;SDS011;8864;51.970;4.614;2023-07-16T01:44:25;2.65;;;1.33;;
17494;SDS011;8864;51.970;4.614;2023-07-16T01:47:02;4.50;;;1.50;;
17494;SDS011;8864;51.970;4.614;2023-07-16T01:49:32;3.95;;;1.77;;
17494;SDS011;8864;51.970;4.614;2023-07-16T01:51:59;4.65;;;1.60;;
17494;SDS011;8864;51.970;4.614;2023-07-16T01:54:27;3.97;;;1.55;;
17494;SDS011;8864;51.970;4.614;2023-07-16T01:56:53;2.08;;;1.20;;
17494;SDS011;8864;51.970;4.614;2023-07-16T01:59:21;3.15;;;1.38;;
17494;SDS011;8864;51.970;4.614;2023-07-16T02:01:49;2.63;;;1.42;;
17494;SDS011;8864;51.970;4.614;2023-07-16T02:04:22;3.47;;;1.30;;
17494;SDS011;8864;51.970;4.614;2023-07-16T02:06:49;2.92;;;1.48;;
17494;SDS011;8864;51.970;4.614;2023-07-16T02:09:17;4.00;;;1.25;;
17494;SDS011;8864;51.970;4.614;2023-07-16T02:11:43;2.38;;;1.30;;
17494;SDS011;8864;51.970;4.614;2023-07-16T02:14:10;2.45;;;1.40;;
17494;SDS011;8864;51.970;4.614;2023-07-16T02:16:39;3.33;;;1.35;;
17494;SDS011;8864;51.970;4.614;2023-07-16T02:19:06;3.65;;;1.73;;
17494;SDS011;8864;51.970;4.614;2023-07-16T02:21:34;2.55;;;1.42;;
17494;SDS011;8864;51.970;4.614;2023-07-16T02:24:01;3.50;;;1.30;;
17494;SDS011;8864;51.970;4.614;2023-07-16T02:26:28;2.47;;;1.30;;
17494;SDS011;8864;51.970;4.614;2023-07-16T02:28:55;2.90;;;1.50;;
17494;SDS011;8864;51.970;4.614;2023-07-16T02:31:23;4.20;;;1.75;;
17494;SDS011;8864;51.970;4.614;2023-07-16T02:33:52;3.38;;;1.65;;
17494;SDS011;8864;51.970;4.614;2023-07-16T02:36:19;2.65;;;1.42;;
17494;SDS011;8864;51.970;4.614;2023-07-16T02:38:47;1.92;;;1.38;;
17494;SDS011;8864;51.970;4.614;2023-07-16T02:41:16;3.50;;;1.60;;
17494;SDS011;8864;51.970;4.614;2023-07-16T02:43:44;3.70;;;1.35;;
17494;SDS011;8864;51.970;4.614;2023-07-16T02:46:12;3.22;;;1.63;;
17494;SDS011;8864;51.970;4.614;2023-07-16T02:48:39;2.88;;;1.63;;
17494;SDS011;8864;51.970;4.614;2023-07-16T02:51:06;3.45;;;1.30;;
17494;SDS011;8864;51.970;4.614;2023-07-16T02:53:33;2.58;;;1.42;;
17494;SDS011;8864;51.970;4.614;2023-07-16T02:56:01;3.05;;;1.58;;
17494;SDS011;8864;51.970;4.614;2023-07-16T02:58:28;1.90;;;1.33;;
17494;SDS011;8864;51.970;4.614;2023-07-16T03:00:55;2.80;;;1.52;;
17494;SDS011;8864;51.970;4.614;2023-07-16T03:03:22;2.50;;;1.50;;
17494;SDS011;8864;51.970;4.614;2023-07-16T03:05:49;2.40;;;1.50;;
17494;SDS011;8864;51.970;4.614;2023-07-16T03:08:16;2.60;;;1.63;;
17494;SDS011;8864;51.970;4.614;2023-07-16T03:10:43;2.20;;;1.40;;
17494;SDS011;8864;51.970;4.614;2023-07-16T03:13:11;3.47;;;1.63;;
17494;SDS011;8864;51.970;4.614;2023-07-16T03:15:38;3.30;;;1.67;;
17494;SDS011;8864;51.970;4.614;2023-07-16T03:18:05;2.45;;;1.40;;
17494;SDS011;8864;51.970;4.614;2023-07-16T03:20:32;2.97;;;1.50;;
17494;SDS011;8864;51.970;4.614;2023-07-16T03:22:59;2.58;;;1.60;;
17494;SDS011;8864;51.970;4.614;2023-07-16T03:25:26;2.80;;;1.52;;
17494;SDS011;8864;51.970;4.614;2023-07-16T03:27:53;3.17;;;1.80;;
17494;SDS011;8864;51.970;4.614;2023-07-16T03:30:21;3.00;;;1.67;;
17494;SDS011;8864;51.970;4.614;2023-07-16T03:32:48;3.08;;;1.50;;
17494;SDS011;8864;51.970;4.614;2023-07-16T03:35:15;4.20;;;1.40;;
17494;SDS011;8864;51.970;4.614;2023-07-16T03:37:42;3.50;;;1.63;;
17494;SDS011;8864;51.970;4.614;2023-07-16T03:40:12;3.67;;;1.60;;
17494;SDS011;8864;51.970;4.614;2023-07-16T03:42:40;3.25;;;1.58;;
17494;SDS011;8864;51.970;4.614;2023-07-16T03:45:07;2.42;;;1.55;;
17494;SDS011;8864;51.970;4.614;2023-07-16T03:47:37;3.28;;;1.60;;
17494;SDS011;8864;51.970;4.614;2023-07-16T03:50:04;2.22;;;1.50;;
17494;SDS011;8864;51.970;4.614;2023-07-16T03:52:32;2.05;;;1.27;;
17494;SDS011;8864;51.970;4.614;2023-07-16T03:54:58;2.78;;;1.60;;
17494;SDS011;8864;51.970;4.614;2023-07-16T03:57:26;3.80;;;1.65;;
17494;SDS011;8864;51.970;4.614;2023-07-16T03:59:53;5.43;;;1.58;;
17494;SDS011;8864;51.970;4.614;2023-07-16T04:02:20;2.95;;;1.73;;
17494;SDS011;8864;51.970;4.614;2023-07-16T04:04:48;7.75;;;2.00;;
17494;SDS011;8864;51.970;4.614;2023-07-16T04:07:15;1.90;;;1.48;;
17494;SDS011;8864;51.970;4.614;2023-07-16T04:09:48;2.97;;;1.60;;
17494;SDS011;8864;51.970;4.614;2023-07-16T04:12:15;3.65;;;1.75;;
17494;SDS011;8864;51.970;4.614;2023-07-16T04:14:42;3.95;;;1.80;;
17494;SDS011;8864;51.970;4.614;2023-07-16T04:17:09;4.18;;;1.80;;
17494;SDS011;8864;51.970;4.614;2023-07-16T04:19:37;2.03;;;1.58;;
17494;SDS011;8864;51.970;4.614;2023-07-16T04:22:06;3.95;;;1.73;;
17494;SDS011;8864;51.970;4.614;2023-07-16T04:24:32;1.90;;;1.50;;
17494;SDS011;8864;51.970;4.614;2023-07-16T04:26:59;3.25;;;1.70;;
17494;SDS011;8864;51.970;4.614;2023-07-16T04:29:26;2.95;;;1.75;;
17494;SDS011;8864;51.970;4.614;2023-07-16T04:31:53;3.63;;;2.08;;
17494;SDS011;8864;51.970;4.614;2023-07-16T04:34:20;4.40;;;1.50;;
17494;SDS011;8864;51.970;4.614;2023-07-16T04:36:47;3.80;;;1.80;;
17494;SDS011;8864;51.970;4.614;2023-07-16T04:39:15;4.75;;;1.70;;
17494;SDS011;8864;51.970;4.614;2023-07-16T04:41:42;3.42;;;1.70;;
17494;SDS011;8864;51.970;4.614;2023-07-16T04:44:09;2.75;;;1.77;;
17494;SDS011;8864;51.970;4.614;2023-07-16T04:46:36;3.80;;;1.90;;
17494;SDS011;8864;51.970;4.614;2023-07-16T04:49:04;2.38;;;1.77;;
17494;SDS011;8864;51.970;4.614;2023-07-16T04:51:31;3.60;;;1.80;;
17494;SDS011;8864;51.970;4.614;2023-07-16T04:53:58;2.53;;;1.85;;
17494;SDS011;8864;51.970;4.614;2023-07-16T04:56:26;3.60;;;1.90;;
17494;SDS011;8864;51.970;4.614;2023-07-16T04:58:53;3.95;;;2.10;;
17494;SDS011;8864;51.970;4.614;2023-07-16T05:01:20;4.28;;;2.17;;
17494;SDS011;8864;51.970;4.614;2023-07-16T05:03:47;4.82;;;2.20;;
17494;SDS011;8864;51.970;4.614;2023-07-16T05:06:13;2.08;;;1.67;;
17494;SDS011;8864;51.970;4.614;2023-07-16T05:08:40;3.47;;;2.00;;
17494;SDS011;8864;51.970;4.614;2023-07-16T05:11:07;4.03;;;2.40;;
17494;SDS011;8864;51.970;4.614;2023-07-16T05:13:35;4.10;;;2.05;;
17494;SDS011;8864;51.970;4.614;2023-07-16T05:16:02;5.22;;;2.03;;
17494;SDS011;8864;51.970;4.614;2023-07-16T05:18:30;3.97;;;2.10;;
17494;SDS011;8864;51.970;4.614;2023-07-16T05:20:59;2.97;;;1.95;;
17494;SDS011;8864;51.970;4.614;2023-07-16T05:23:25;3.33;;;1.98;;
17494;SDS011;8864;51.970;4.614;2023-07-16T05:25:53;3.38;;;2.17;;
17494;SDS011;8864;51.970;4.614;2023-07-16T05:28:20;3.95;;;2.10;;
17494;SDS011;8864;51.970;4.614;2023-07-16T05:30:56;3.05;;;2.00;;
17494;SDS011;8864;51.970;4.614;2023-07-16T05:33:24;3.03;;;2.15;;
17494;SDS011;8864;51.970;4.614;2023-07-16T05:35:53;3.08;;;2.05;;
17494;SDS011;8864;51.970;4.614;2023-07-16T05:38:20;3.97;;;2.00;;
17494;SDS011;8864;51.970;4.614;2023-07-16T05:40:47;3.67;;;2.25;;
17494;SDS011;8864;51.970;4.614;2023-07-16T05:43:16;3.22;;;1.90;;
17494;SDS011;8864;51.970;4.614;2023-07-16T05:45:42;4.28;;;2.13;;
17494;SDS011;8864;51.970;4.614;2023-07-16T05:48:11;3.25;;;1.90;;
17494;SDS011;8864;51.970;4.614;2023-07-16T05:50:38;4.40;;;2.20;;
17494;SDS011;8864;51.970;4.614;2023-07-16T05:53:05;4.55;;;2.38;;
17494;SDS011;8864;51.970;4.614;2023-07-16T05:55:31;2.78;;;1.80;;
17494;SDS011;8864;51.970;4.614;2023-07-16T05:57:58;3.95;;;2.25;;
17494;SDS011;8864;51.970;4.614;2023-07-16T06:00:25;4.03;;;2.08;;
17494;SDS011;8864;51.970;4.614;2023-07-16T06:02:52;3.83;;;2.40;;
17494;SDS011;8864;51.970;4.614;2023-07-16T06:05:22;4.55;;;2.35;;
17494;SDS011;8864;51.970;4.614;2023-07-16T06:07:49;3.13;;;2.08;;
17494;SDS011;8864;51.970;4.614;2023-07-16T06:10:16;3.30;;;2.20;;
17494;SDS011;8864;51.970;4.614;2023-07-16T06:12:43;3.83;;;1.98;;
17494;SDS011;8864;51.970;4.614;2023-07-16T06:15:10;4.55;;;2.10;;
17494;SDS011;8864;51.970;4.614;2023-07-16T06:17:37;3.35;;;1.95;;
17494;SDS011;8864;51.970;4.614;2023-07-16T06:20:05;4.78;;;2.40;;
17494;SDS011;8864;51.970;4.614;2023-07-16T06:22:34;4.43;;;2.38;;
17494;SDS011;8864;51.970;4.614;2023-07-16T06:25:03;3.70;;;1.83;;
17494;SDS011;8864;51.970;4.614;2023-07-16T06:27:30;4.15;;;2.30;;
17494;SDS011;8864;51.970;4.614;2023-07-16T06:29:58;4.28;;;2.28;;
17494;SDS011;8864;51.970;4.614;2023-07-16T06:32:24;3.05;;;2.17;;
17494;SDS011;8864;51.970;4.614;2023-07-16T06:34:51;3.95;;;2.22;;
17494;SDS011;8864;51.970;4.614;2023-07-16T06:37:18;3.33;;;2.30;;
17494;SDS011;8864;51.970;4.614;2023-07-16T06:39:49;3.78;;;2.30;;
17494;SDS011;8864;51.970;4.614;2023-07-16T06:42:16;3.65;;;2.20;;
17494;SDS011;8864;51.970;4.614;2023-07-16T06:44:43;3.75;;;2.40;;
17494;SDS011;8864;51.970;4.614;2023-07-16T06:47:10;4.30;;;2.40;;
17494;SDS011;8864;51.970;4.614;2023-07-16T06:49:37;4.05;;;2.20;;
17494;SDS011;8864;51.970;4.614;2023-07-16T06:52:04;3.38;;;2.28;;
17494;SDS011;8864;51.970;4.614;2023-07-16T06:54:32;3.33;;;2.10;;
17494;SDS011;8864;51.970;4.614;2023-07-16T06:57:01;9.23;;;2.00;;
17494;SDS011;8864;51.970;4.614;2023-07-16T06:59:28;3.63;;;2.45;;
17494;SDS011;8864;51.970;4.614;2023-07-16T07:01:55;4.60;;;2.33;;
17494;SDS011;8864;51.970;4.614;2023-07-16T07:04:21;5.53;;;2.50;;
17494;SDS011;8864;51.970;4.614;2023-07-16T07:06:49;4.82;;;2.25;;
17494;SDS011;8864;51.970;4.614;2023-07-16T07:09:16;5.07;;;2.30;;
17494;SDS011;8864;51.970;4.614;2023-07-16T07:11:43;4.97;;;2.33;;
17494;SDS011;8864;51.970;4.614;2023-07-16T07:14:11;3.08;;;2.25;;
17494;SDS011;8864;51.970;4.614;2023-07-16T07:16:38;3.83;;;2.08;;
17494;SDS011;8864;51.970;4.614;2023-07-16T07:19:05;4.38;;;2.42;;
17494;SDS011;8864;51.970;4.614;2023-07-16T07:21:32;2.83;;;1.92;;
17494;SDS011;8864;51.970;4.614;2023-07-16T07:24:00;3.40;;;2.22;;
17494;SDS011;8864;51.970;4.614;2023-07-16T07:26:29;3.00;;;2.20;;
17494;SDS011;8864;51.970;4.614;2023-07-16T07:28:57;4.28;;;2.58;;
17494;SDS011;8864;51.970;4.614;2023-07-16T07:31:25;4.90;;;2.40;;
17494;SDS011;8864;51.970;4.614;2023-07-16T07:33:52;4.43;;;2.20;;
17494;SDS011;8864;51.970;4.614;2023-07-16T07:36:19;4.35;;;2.20;;
17494;SDS011;8864;51.970;4.614;2023-07-16T07:38:46;5.25;;;2.35;;
17494;SDS011;8864;51.970;4.614;2023-07-16T07:41:13;3.58;;;2.20;;
17494;SDS011;8864;51.970;4.614;2023-07-16T07:43:40;2.45;;;2.10;;
17494;SDS011;8864;51.970;4.614;2023-07-16T07:46:07;2.97;;;2.10;;
17494;SDS011;8864;51.970;4.614;2023-07-16T07:48:37;4.15;;;2.25;;
17494;SDS011;8864;51.970;4.614;2023-07-16T07:51:03;3.53;;;2.40;;
17494;SDS011;8864;51.970;4.614;2023-07-16T07:53:31;3.88;;;2.58;;
17494;SDS011;8864;51.970;4.614;2023-07-16T07:55:58;4.03;;;2.58;;
17494;SDS011;8864;51.970;4.614;2023-07-16T07:58:24;3.42;;;2.50;;
17494;SDS011;8864;51.970;4.614;2023-07-16T08:00:51;4.85;;;2.30;;
17494;SDS011;8864;51.970;4.614;2023-07-16T08:03:18;4.78;;;2.55;;
17494;SDS011;8864;51.970;4.614;2023-07-16T08:05:49;4.18;;;2.35;;
17494;SDS011;8864;51.970;4.614;2023-07-16T08:08:16;3.30;;;2.10;;
17494;SDS011;8864;51.970;4.614;2023-07-16T08:10:42;4.28;;;2.70;;
17494;SDS011;8864;51.970;4.614;2023-07-16T08:13:11;4.53;;;2.47;;
17494;SDS011;8864;51.970;4.614;2023-07-16T08:15:38;7.07;;;2.72;;
17494;SDS011;8864;51.970;4.614;2023-07-16T08:18:04;4.38;;;2.45;;
17494;SDS011;8864;51.970;4.614;2023-07-16T08:20:31;4.20;;;2.60;;
17494;SDS011;8864;51.970;4.614;2023-07-16T08:23:00;4.00;;;2.55;;
17494;SDS011;8864;51.970;4.614;2023-07-16T08:25:27;5.25;;;2.50;;
17494;SDS011;8864;51.970;4.614;2023-07-16T08:27:54;3.58;;;2.30;;
17494;SDS011;8864;51.970;4.614;2023-07-16T08:30:21;4.88;;;2.80;;
17494;SDS011;8864;51.970;4.614;2023-07-16T08:32:48;4.50;;;2.60;;
17494;SDS011;8864;51.970;4.614;2023-07-16T08:35:15;4.78;;;2.63;;
17494;SDS011;8864;51.970;4.614;2023-07-16T08:37:42;5.38;;;2.70;;
17494;SDS011;8864;51.970;4.614;2023-07-16T08:40:12;6.63;;;2.65;;
17494;SDS011;8864;51.970;4.614;2023-07-16T08:42:39;3.42;;;2.22;;
17494;SDS011;8864;51.970;4.614;2023-07-16T08:45:10;3.63;;;2.35;;
17494;SDS011;8864;51.970;4.614;2023-07-16T08:47:37;5.18;;;2.80;;
17494;SDS011;8864;51.970;4.614;2023-07-16T08:50:04;4.90;;;2.80;;
17494;SDS011;8864;51.970;4.614;2023-07-16T08:52:32;3.55;;;2.25;;
17494;SDS011;8864;51.970;4.614;2023-07-16T08:54:59;5.93;;;2.33;;
17494;SDS011;8864;51.970;4.614;2023-07-16T08:57:27;4.28;;;2.75;;
17494;SDS011;8864;51.970;4.614;2023-07-16T08:59:56;3.47;;;2.58;;
17494;SDS011;8864;51.970;4.614;2023-07-16T09:02:24;5.95;;;3.03;;
17494;SDS011;8864;51.970;4.614;2023-07-16T09:04:51;4.00;;;2.38;;
17494;SDS011;8864;51.970;4.614;2023-07-16T09:07:20;3.78;;;2.33;;
17494;SDS011;8864;51.970;4.614;2023-07-16T09:09:54;4.78;;;2.58;;
17494;SDS011;8864;51.970;4.614;2023-07-16T09:12:24;5.85;;;2.95;;
17494;SDS011;8864;51.970;4.614;2023-07-16T09:14:52;4.30;;;2.40;;
17494;SDS011;8864;51.970;4.614;2023-07-16T09:17:20;4.95;;;2.33;;
17494;SDS011;8864;51.970;4.614;2023-07-16T09:19:50;4.95;;;2.83;;
17494;SDS011;8864;51.970;4.614;2023-07-16T09:22:17;5.45;;;2.83;;
17494;SDS011;8864;51.970;4.614;2023-07-16T09:24:46;6.22;;;2.65;;
17494;SDS011;8864;51.970;4.614;2023-07-16T09:27:13;4.30;;;2.50;;
17494;SDS011;8864;51.970;4.614;2023-07-16T09:29:42;5.50;;;2.80;;
17494;SDS011;8864;51.970;4.614;2023-07-16T09:32:11;6.75;;;2.92;;
17494;SDS011;8864;51.970;4.614;2023-07-16T09:34:38;4.55;;;2.63;;
17494;SDS011;8864;51.970;4.614;2023-07-16T09:37:05;5.97;;;2.55;;
17494;SDS011;8864;51.970;4.614;2023-07-16T09:39:32;6.25;;;2.80;;
17494;SDS011;8864;51.970;4.614;2023-07-16T09:41:59;6.68;;;2.83;;
17494;SDS011;8864;51.970;4.614;2023-07-16T09:44:28;5.28;;;2.63;;
17494;SDS011;8864;51.970;4.614;2023-07-16T09:46:56;6.68;;;3.00;;
17494;SDS011;8864;51.970;4.614;2023-07-16T09:49:26;3.42;;;2.40;;
17494;SDS011;8864;51.970;4.614;2023-07-16T09:51:55;4.65;;;2.70;;
17494;SDS011;8864;51.970;4.614;2023-07-16T09:54:25;5.57;;;2.70;;
17494;SDS011;8864;51.970;4.614;2023-07-16T09:56:57;4.47;;;2.50;;
17494;SDS011;8864;51.970;4.614;2023-07-16T09:59:27;5.20;;;2.95;;
17494;SDS011;8864;51.970;4.614;2023-07-16T10:01:57;5.13;;;2.92;;
17494;SDS011;8864;51.970;4.614;2023-07-16T10:04:26;3.97;;;2.50;;
17494;SDS011;8864;51.970;4.614;2023-07-16T10:07:03;3.95;;;2.65;;
17494;SDS011;8864;51.970;4.614;2023-07-16T10:09:34;4.75;;;2.63;;
17494;SDS011;8864;51.970;4.614;2023-07-16T10:12:15;4.90;;;2.88;;
17494;SDS011;8864;51.970;4.614;2023-07-16T10:14:44;4.57;;;3.00;;
17494;SDS011;8864;51.970;4.614;2023-07-16T10:17:12;4.95;;;2.70;;
17494;SDS011;8864;51.970;4.614;2023-07-16T10:19:56;6.97;;;2.88;;
17494;SDS011;8864;51.970;4.614;2023-07-16T10:22:36;4.38;;;2.47;;
17494;SDS011;8864;51.970;4.614;2023-07-16T10:25:07;4.78;;;2.70;;
17494;SDS011;8864;51.970;4.614;2023-07-16T10:27:35;5.35;;;2.60;;
17494;SDS011;8864;51.970;4.614;2023-07-16T10:30:03;5.75;;;2.67;;
17494;SDS011;8864;51.970;4.614;2023-07-16T10:32:31;4.05;;;2.30;;
17494;SDS011;8864;51.970;4.614;2023-07-16T10:35:00;7.45;;;2.80;;
17494;SDS011;8864;51.970;4.614;2023-07-16T10:37:28;4.47;;;2.40;;
17494;SDS011;8864;51.970;4.614;2023-07-16T10:39:56;5.63;;;2.45;;
17494;SDS011;8864;51.970;4.614;2023-07-16T10:42:24;4.45;;;2.40;;
17494;SDS011;8864;51.970;4.614;2023-07-16T10:44:52;5.47;;;2.65;;
17494;SDS011;8864;51.970;4.614;2023-07-16T10:47:22;4.22;;;2.40;;
17494;SDS011;8864;51.970;4.614;2023-07-16T10:49:50;7.07;;;2.90;;
17494;SDS011;8864;51.970;4.614;2023-07-16T10:52:20;4.30;;;2.45;;
17494;SDS011;8864;51.970;4.614;2023-07-16T10:54:48;3.83;;;2.30;;
17494;SDS011;8864;51.970;4.614;2023-07-16T10:57:19;5.00;;;2.42;;
17494;SDS011;8864;51.970;4.614;2023-07-16T10:59:46;3.85;;;2.60;;
17494;SDS011;8864;51.970;4.614;2023-07-16T11:02:15;4.68;;;2.55;;
17494;SDS011;8864;51.970;4.614;2023-07-16T11:04:42;4.05;;;2.33;;
17494;SDS011;8864;51.970;4.614;2023-07-16T11:07:10;4.93;;;2.58;;
17494;SDS011;8864;51.970;4.614;2023-07-16T11:09:43;4.50;;;2.42;;
17494;SDS011;8864;51.970;4.614;2023-07-16T11:12:11;3.45;;;2.15;;
17494;SDS011;8864;51.970;4.614;2023-07-16T11:14:39;3.40;;;2.22;;
17494;SDS011;8864;51.970;4.614;2023-07-16T11:17:09;4.28;;;2.22;;
17494;SDS011;8864;51.970;4.614;2023-07-16T11:19:37;4.47;;;2.50;;
17494;SDS011;8864;51.970;4.614;2023-07-16T11:22:05;3.58;;;2.20;;
17494;SDS011;8864;51.970;4.614;2023-07-16T11:24:36;4.18;;;2.65;;
17494;SDS011;8864;51.970;4.614;2023-07-16T11:27:13;3.95;;;2.40;;
17494;SDS011;8864;51.970;4.614;2023-07-16T11:29:44;3.78;;;2.50;;
17494;SDS011;8864;51.970;4.614;2023-07-16T11:32:12;3.35;;;2.20;;
17494;SDS011;8864;51.970;4.614;2023-07-16T11:34:51;3.72;;;2.30;;
17494;SDS011;8864;51.970;4.614;2023-07-16T11:37:19;3.67;;;2.53;;
17494;SDS011;8864;51.970;4.614;2023-07-16T11:39:47;5.35;;;2.47;;
17494;SDS011;8864;51.970;4.614;2023-07-16T11:42:17;3.22;;;1.90;;
17494;SDS011;8864;51.970;4.614;2023-07-16T11:44:49;3.15;;;2.20;;
17494;SDS011;8864;51.970;4.614;2023-07-16T11:47:16;4.05;;;2.25;;
17494;SDS011;8864;51.970;4.614;2023-07-16T11:49:43;4.38;;;2.78;;
17494;SDS011;8864;51.970;4.614;2023-07-16T11:52:10;4.30;;;2.28;;
17494;SDS011;8864;51.970;4.614;2023-07-16T11:54:37;4.40;;;2.22;;
17494;SDS011;8864;51.970;4.614;2023-07-16T11:57:04;3.72;;;2.17;;
17494;SDS011;8864;51.970;4.614;2023-07-16T11:59:32;3.28;;;1.98;;
17494;SDS011;8864;51.970;4.614;2023-07-16T12:01:59;4.53;;;2.30;;
17494;SDS011;8864;51.970;4.614;2023-07-16T12:04:26;4.07;;;2.15;;
17494;SDS011;8864;51.970;4.614;2023-07-16T12:06:53;4.05;;;2.30;;
17494;SDS011;8864;51.970;4.614;2023-07-16T12:09:20;2.75;;;1.75;;
17494;SDS011;8864;51.970;4.614;2023-07-16T12:11:47;3.13;;;2.13;;
17494;SDS011;8864;51.970;4.614;2023-07-16T12:14:14;3.20;;;2.10;;
17494;SDS011;8864;51.970;4.614;2023-07-16T12:16:42;4.10;;;2.05;;
17494;SDS011;8864;51.970;4.614;2023-07-16T12:19:09;6.05;;;2.20;;
17494;SDS011;8864;51.970;4.614;2023-07-16T12:21:36;3.30;;;2.00;;
17494;SDS011;8864;51.970;4.614;2023-07-16T12:24:03;4.00;;;2.03;;
17494;SDS011;8864;51.970;4.614;2023-07-16T12:26:31;4.07;;;2.15;;
17494;SDS011;8864;51.970;4.614;2023-07-16T12:28:59;4.97;;;2.25;;
17494;SDS011;8864;51.970;4.614;2023-07-16T12:31:28;3.47;;;1.90;;
17494;SDS011;8864;51.970;4.614;2023-07-16T12:33:57;5.45;;;2.25;;
17494;SDS011;8864;51.970;4.614;2023-07-16T12:36:25;2.60;;;1.83;;
17494;SDS011;8864;51.970;4.614;2023-07-16T12:38:51;3.38;;;2.25;;
17494;SDS011;8864;51.970;4.614;2023-07-16T12:41:18;4.22;;;2.13;;
17494;SDS011;8864;51.970;4.614;2023-07-16T12:43:45;3.60;;;2.10;;
17494;SDS011;8864;51.970;4.614;2023-07-16T12:46:12;3.85;;;1.95;;
17494;SDS011;8864;51.970;4.614;2023-07-16T12:48:39;3.75;;;2.00;;
17494;SDS011;8864;51.970;4.614;2023-07-16T12:51:07;3.25;;;1.98;;
17494;SDS011;8864;51.970;4.614;2023-07-16T12:53:34;3.38;;;1.85;;
17494;SDS011;8864;51.970;4.614;2023-07-16T12:56:01;3.97;;;1.92;;
17494;SDS011;8864;51.970;4.614;2023-07-16T12:58:28;2.75;;;1.75;;
17494;SDS011;8864;51.970;4.614;2023-07-16T13:00:55;4.78;;;1.98;;
17494;SDS011;8864;51.970;4.614;2023-07-16T13:03:22;3.97;;;2.00;;
17494;SDS011;8864;51.970;4.614;2023-07-16T13:05:49;3.30;;;2.00;;
17494;SDS011;8864;51.970;4.614;2023-07-16T13:08:17;3.63;;;1.88;;
17494;SDS011;8864;51.970;4.614;2023-07-16T13:10:44;4.43;;;1.90;;
17494;SDS011;8864;51.970;4.614;2023-07-16T13:13:11;3.45;;;1.80;;
17494;SDS011;8864;51.970;4.614;2023-07-16T13:15:38;2.22;;;1.80;;
17494;SDS011;8864;51.970;4.614;2023-07-16T13:18:05;4.03;;;1.92;;
17494;SDS011;8864;51.970;4.614;2023-07-16T13:20:32;3.65;;;2.25;;
17494;SDS011;8864;51.970;4.614;2023-07-16T13:22:59;2.55;;;1.50;;
17494;SDS011;8864;51.970;4.614;2023-07-16T13:25:27;2.63;;;1.70;;
17494;SDS011;8864;51.970;4.614;2023-07-16T13:27:54;4.05;;;2.05;;
17494;SDS011;8864;51.970;4.614;2023-07-16T13:30:21;4.00;;;1.88;;
17494;SDS011;8864;51.970;4.614;2023-07-16T13:32:48;2.58;;;1.75;;
17494;SDS011;8864;51.970;4.614;2023-07-16T13:35:15;2.70;;;1.50;;
17494;SDS011;8864;51.970;4.614;2023-07-16T13:37:42;3.35;;;1.60;;
17494;SDS011;8864;51.970;4.614;2023-07-16T13:40:11;2.67;;;1.63;;
17494;SDS011;8864;51.970;4.614;2023-07-16T13:42:39;4.00;;;1.90;;
17494;SDS011;8864;51.970;4.614;2023-07-16T13:45:07;5.20;;;1.80;;
17494;SDS011;8864;51.970;4.614;2023-07-16T13:47:34;3.38;;;1.50;;
17494;SDS011;8864;51.970;4.614;2023-07-16T13:50:01;3.00;;;1.70;;
17494;SDS011;8864;51.970;4.614;2023-07-16T13:52:28;2.50;;;1.70;;
17494;SDS011;8864;51.970;4.614;2023-07-16T13:54:55;3.17;;;1.55;;
17494;SDS011;8864;51.970;4.614;2023-07-16T13:57:22;4.68;;;1.63;;
17494;SDS011;8864;51.970;4.614;2023-07-16T13:59:50;3.83;;;1.90;;
17494;SDS011;8864;51.970;4.614;2023-07-16T14:02:17;2.70;;;1.42;;
17494;SDS011;8864;51.970;4.614;2023-07-16T14:04:45;2.75;;;1.40;;
17494;SDS011;8864;51.970;4.614;2023-07-16T14:07:12;2.60;;;1.70;;
17494;SDS011;8864;51.970;4.614;2023-07-16T14:09:39;8.55;;;1.83;;
17494;SDS011;8864;51.970;4.614;2023-07-16T14:12:07;4.15;;;1.92;;
17494;SDS011;8864;51.970;4.614;2023-07-16T14:14:34;2.65;;;1.52;;
17494;SDS011;8864;51.970;4.614;2023-07-16T14:17:02;3.97;;;1.90;;
17494;SDS011;8864;51.970;4.614;2023-07-16T14:19:29;4.80;;;1.70;;
17494;SDS011;8864;51.970;4.614;2023-07-16T14:21:56;2.60;;;1.70;;
17494;SDS011;8864;51.970;4.614;2023-07-16T14:24:23;3.13;;;1.40;;
17494;SDS011;8864;51.970;4.614;2023-07-16T14:26:50;2.67;;;1.65;;
17494;SDS011;8864;51.970;4.614;2023-07-16T14:29:17;2.70;;;1.48;;
17494;SDS011;8864;51.970;4.614;2023-07-16T14:31:44;2.08;;;1.48;;
17494;SDS011;8864;51.970;4.614;2023-07-16T14:34:13;3.10;;;1.30;;
17494;SDS011;8864;51.970;4.614;2023-07-16T14:36:40;1.83;;;1.38;;
17494;SDS011;8864;51.970;4.614;2023-07-16T14:39:08;3.40;;;1.65;;
17494;SDS011;8864;51.970;4.614;2023-07-16T14:41:34;2.53;;;1.48;;
17494;SDS011;8864;51.970;4.614;2023-07-16T14:44:04;2.00;;;1.45;;
17494;SDS011;8864;51.970;4.614;2023-07-16T14:46:31;4.43;;;1.55;;
17494;SDS011;8864;51.970;4.614;2023-07-16T14:48:58;2.65;;;1.33;;
17494;SDS011;8864;51.970;4.614;2023-07-16T14:51:26;2.75;;;1.40;;
17494;SDS011;8864;51.970;4.614;2023-07-16T14:53:54;3.72;;;1.70;;
17494;SDS011;8864;51.970;4.614;2023-07-16T14:56:21;2.95;;;1.38;;
17494;SDS011;8864;51.970;4.614;2023-07-16T14:58:48;3.10;;;1.55;;
17494;SDS011;8864;51.970;4.614;2023-07-16T15:01:15;3.30;;;1.65;;
17494;SDS011;8864;51.970;4.614;2023-07-16T15:03:42;3.47;;;1.55;;
17494;SDS011;8864;51.970;4.614;2023-07-16T15:06:09;3.15;;;1.52;;
17494;SDS011;8864;51.970;4.614;2023-07-16T15:08:37;2.95;;;1.77;;